createdAt,value
2023-04-18T00:02:36.498Z,160779.56
2023-04-18T00:05:40.773Z,160778.31
2023-04-18T00:08:44.860Z,160786.16
2023-04-18T00:11:49.014Z,160804.41
2023-04-18T00:14:53.472Z,160782.22
2023-04-18T00:17:57.998Z,160763.94
2023-04-18T00:21:03.105Z,160754.75
2023-04-18T00:24:07.632Z,160758.69
2023-04-18T00:27:11.388Z,160744.34
2023-04-18T00:30:15.469Z,160722.09
2023-04-18T00:33:19.264Z,160754.75
2023-04-18T00:36:23.366Z,160737.78
2023-04-18T00:39:27.423Z,160743.03
2023-04-18T00:42:31.860Z,160746.91
2023-04-18T00:45:37.129Z,160722.09
2023-04-18T00:48:41.337Z,160732.59
2023-04-18T00:51:45.735Z,160749.56
2023-04-18T00:54:49.758Z,160735.19
2023-04-18T00:57:53.609Z,160718.16
2023-04-18T01:00:57.909Z,160745.69
2023-04-18T01:04:02.530Z,160732.59
2023-04-18T01:07:08.354Z,160744.34
2023-04-18T01:10:12.302Z,160745.69
2023-04-18T01:13:20.662Z,160750.84
2023-04-18T01:16:24.853Z,160769.19
2023-04-18T01:19:29.078Z,160752.16
2023-04-18T01:22:33.645Z,160761.31
2023-04-18T01:25:38.951Z,160761.31
2023-04-18T01:28:42.854Z,160756.09
2023-04-18T01:31:46.776Z,160752.16
2023-04-18T01:34:51.159Z,160779.56
2023-04-18T01:37:55.721Z,160769.19
2023-04-18T01:41:05.673Z,160778.31
2023-04-18T01:44:09.751Z,160811.00
2023-04-18T01:47:14.046Z,160792.69
2023-04-18T01:50:18.170Z,160784.84
2023-04-18T01:53:24.038Z,160791.34
2023-04-18T01:56:28.254Z,160803.13
2023-04-18T01:59:32.233Z,160776.97
2023-04-18T02:02:36.072Z,160795.34
2023-04-18T02:05:40.144Z,160809.66
2023-04-18T02:08:44.173Z,160834.50
2023-04-18T02:11:48.411Z,160827.97
2023-04-18T02:14:53.487Z,160816.19
2023-04-18T02:18:00.193Z,160848.91
2023-04-18T02:21:04.735Z,160825.31
2023-04-18T02:24:08.497Z,160821.44
2023-04-18T02:27:12.681Z,160839.75
2023-04-18T02:30:16.938Z,160817.50
2023-04-18T02:33:20.849Z,160816.19
2023-04-18T02:36:28.110Z,160807.06
2023-04-18T02:39:32.396Z,160821.44
2023-04-18T02:42:36.394Z,160822.75
2023-04-18T02:45:40.590Z,160818.84
2023-04-18T02:48:44.663Z,160818.84
2023-04-18T02:51:48.804Z,160845.00
2023-04-18T02:54:52.978Z,160829.25
2023-04-18T02:57:57.421Z,160818.84
2023-04-18T03:01:01.851Z,160837.09
2023-04-18T03:04:05.782Z,160822.75
2023-04-18T03:07:09.688Z,160829.25
2023-04-18T03:10:13.580Z,160816.19
2023-04-18T03:13:18.005Z,160822.75
2023-04-18T03:16:22.299Z,160827.97
2023-04-18T03:19:26.326Z,160837.09
2023-04-18T03:22:30.242Z,160831.91
2023-04-18T03:25:34.444Z,160825.31
2023-04-18T03:28:38.692Z,160830.56
2023-04-18T03:31:42.845Z,160837.09
2023-04-18T03:34:47.091Z,160826.63
2023-04-18T03:37:51.113Z,160816.19
2023-04-18T03:40:55.388Z,160812.25
2023-04-18T03:43:59.424Z,160801.81
2023-04-18T03:47:03.449Z,160803.13
2023-04-18T03:50:08.098Z,160812.25
2023-04-18T03:53:11.868Z,160813.59
2023-04-18T03:56:16.090Z,160786.16
2023-04-18T03:59:20.309Z,160762.59
2023-04-18T04:02:24.841Z,160748.22
2023-04-18T04:05:29.422Z,160760.00
2023-04-18T04:08:33.691Z,160774.38
2023-04-18T04:11:37.857Z,160769.19
2023-04-18T04:14:41.964Z,160750.84
2023-04-18T04:17:46.174Z,160722.09
2023-04-18T04:20:50.236Z,160726.00
2023-04-18T04:23:54.651Z,160729.94
2023-04-18T04:27:00.147Z,160726.00
2023-04-18T04:30:05.162Z,160705.09
2023-04-18T04:33:09.268Z,160711.69
2023-04-18T04:36:18.363Z,160693.34
2023-04-18T04:39:23.507Z,160716.88
2023-04-18T04:42:28.456Z,160709.03
2023-04-18T04:45:33.201Z,160719.47
2023-04-18T04:48:37.334Z,160726.00
2023-04-18T04:51:41.640Z,160718.16
2023-04-18T04:54:46.584Z,160702.50
2023-04-18T04:57:50.719Z,160720.81
2023-04-18T05:00:55.138Z,160693.34
2023-04-18T05:03:59.450Z,160689.47
2023-04-18T05:07:03.477Z,160710.38
2023-04-18T05:10:07.748Z,160728.66
2023-04-18T05:13:11.753Z,160735.19
2023-04-18T05:16:15.892Z,160705.09
2023-04-18T05:19:23.645Z,160714.28
2023-04-18T05:22:27.420Z,160697.25
2023-04-18T05:25:32.291Z,160711.69
2023-04-18T05:28:36.349Z,160692.00
2023-04-18T05:31:40.200Z,160698.59
2023-04-18T05:34:44.436Z,160685.53
2023-04-18T05:37:48.782Z,160682.94
2023-04-18T05:40:55.440Z,160693.34
2023-04-18T05:44:05.421Z,160698.59
2023-04-18T05:47:09.956Z,160732.59
2023-04-18T05:50:14.064Z,160719.47
2023-04-18T05:53:18.334Z,160750.84
2023-04-18T05:56:22.439Z,160729.94
2023-04-18T05:59:29.561Z,160752.16
2023-04-18T06:02:33.693Z,160791.34
2023-04-18T06:05:37.934Z,160816.19
2023-04-18T06:08:42.035Z,160869.81
2023-04-18T06:11:46.065Z,160903.75
2023-04-18T06:14:50.839Z,160899.88
2023-04-18T06:17:55.441Z,160932.50
2023-04-18T06:20:59.714Z,160936.44
2023-04-18T06:24:03.753Z,160983.50
2023-04-18T06:27:12.745Z,161016.19
2023-04-18T06:30:25.048Z,161034.50
2023-04-18T06:33:29.381Z,161022.72
2023-04-18T06:36:33.534Z,161034.50
2023-04-18T06:39:37.632Z,161047.56
2023-04-18T06:42:42.492Z,161035.78
2023-04-18T06:45:46.812Z,160978.25
2023-04-18T06:48:51.621Z,160941.69
2023-04-18T06:51:55.984Z,160970.44
2023-04-18T06:54:59.952Z,161064.63
2023-04-18T06:58:05.437Z,161095.94
2023-04-18T07:01:09.896Z,161143.03
2023-04-18T07:04:14.823Z,161124.72
2023-04-18T07:07:20.382Z,161190.09
2023-04-18T07:10:24.882Z,161229.34
2023-04-18T07:13:28.966Z,161255.47
2023-04-18T07:16:33.349Z,161258.13
2023-04-18T07:19:37.793Z,161140.38
2023-04-18T07:22:41.996Z,161082.88
2023-04-18T07:25:46.453Z,161048.84
2023-04-18T07:28:50.495Z,161034.50
2023-04-18T07:31:54.613Z,161003.09
2023-04-18T07:34:59.224Z,161046.25
2023-04-18T07:38:03.339Z,161072.41
2023-04-18T07:41:07.355Z,161092.00
2023-04-18T07:44:11.636Z,161128.66
2023-04-18T07:47:16.099Z,161174.44
2023-04-18T07:50:20.215Z,161157.44
2023-04-18T07:53:24.299Z,161128.66
2023-04-18T07:56:28.479Z,161123.41
2023-04-18T07:59:32.926Z,161154.84
2023-04-18T08:02:37.002Z,161200.59
2023-04-18T08:05:42.983Z,161228.00
2023-04-18T08:08:47.444Z,161275.13
2023-04-18T08:11:51.480Z,161276.41
2023-04-18T08:14:55.607Z,161381.06
2023-04-18T08:18:00.499Z,161430.81
2023-04-18T08:21:05.257Z,161433.47
2023-04-18T08:24:09.636Z,161371.94
2023-04-18T08:27:13.596Z,161425.53
2023-04-18T08:30:17.631Z,161475.34
2023-04-18T08:33:23.302Z,161481.84
2023-04-18T08:36:27.753Z,161496.22
2023-04-18T08:39:32.278Z,161422.94
2023-04-18T08:42:38.640Z,161388.94
2023-04-18T08:45:43.994Z,161358.84
2023-04-18T08:48:49.513Z,161320.91
2023-04-18T08:51:53.370Z,161281.66
2023-04-18T08:54:57.507Z,161271.19
2023-04-18T08:58:02.130Z,161288.25
2023-04-18T09:01:07.199Z,161281.66
2023-04-18T09:04:13.919Z,161276.41
2023-04-18T09:07:20.541Z,161269.88
2023-04-18T09:10:36.660Z,161276.41
2023-04-18T09:13:47.415Z,161335.28
2023-04-18T09:16:51.627Z,161358.84
2023-04-18T09:19:56.684Z,161390.25
2023-04-18T09:23:03.870Z,161381.06
2023-04-18T09:26:08.178Z,161428.22
2023-04-18T09:29:13.509Z,161436.06
2023-04-18T09:32:29.731Z,161471.38
2023-04-18T09:35:34.638Z,161451.75
2023-04-18T09:38:40.874Z,161450.41
2023-04-18T09:41:58.596Z,161425.53
2023-04-18T09:45:07.775Z,161371.94
2023-04-18T09:48:11.759Z,161415.13
2023-04-18T09:51:16.587Z,161438.63
2023-04-18T09:54:24.014Z,161485.75
2023-04-18T09:57:30.917Z,161594.38
2023-04-18T10:00:37.317Z,161614.03
2023-04-18T10:03:47.945Z,161650.69
2023-04-18T10:06:53.630Z,161586.56
2023-04-18T10:09:57.874Z,161593.09
2023-04-18T10:13:03.048Z,161679.44
2023-04-18T10:16:07.590Z,161759.34
2023-04-18T10:19:26.087Z,161758.00
2023-04-18T10:22:30.344Z,161734.44
2023-04-18T10:25:34.167Z,161761.94
2023-04-18T10:28:56.321Z,161751.47
2023-04-18T10:32:06.669Z,161735.78
2023-04-18T10:35:11.181Z,161768.47
2023-04-18T10:38:17.334Z,161765.81
2023-04-18T10:41:28.959Z,161752.78
2023-04-18T10:44:33.429Z,161726.56
2023-04-18T10:47:37.459Z,161781.56
2023-04-18T10:51:16.930Z,161894.19
2023-04-18T10:55:02.606Z,161869.34
2023-04-18T10:58:06.631Z,161799.88
2023-04-18T11:01:15.736Z,161807.75
2023-04-18T11:04:20.827Z,161784.16
2023-04-18T11:07:39.486Z,161781.56
2023-04-18T11:10:43.575Z,161776.34
2023-04-18T11:13:55.588Z,161904.69
2023-04-18T11:16:59.750Z,161940.00
2023-04-18T11:20:14.142Z,161964.91
2023-04-18T11:23:23.727Z,162015.97
2023-04-18T11:26:28.992Z,162073.63
2023-04-18T11:29:33.068Z,162158.75
2023-04-18T11:32:37.321Z,162169.25
2023-04-18T11:35:43.600Z,162064.47
2023-04-18T11:38:47.848Z,162071.00
2023-04-18T11:41:52.063Z,162129.94
2023-04-18T11:44:56.109Z,162046.09
2023-04-18T11:48:00.915Z,162102.41
2023-04-18T11:51:10.150Z,162116.84
2023-04-18T11:54:36.954Z,162119.47
2023-04-18T11:57:41.870Z,162098.47
2023-04-18T12:00:45.667Z,162080.16
2023-04-18T12:04:04.073Z,161995.00
2023-04-18T12:07:08.087Z,161988.50
2023-04-18T12:10:31.014Z,161992.38
2023-04-18T12:13:35.152Z,161983.22
2023-04-18T12:16:41.592Z,161922.97
2023-04-18T12:19:46.561Z,161946.56
2023-04-18T12:22:53.029Z,161959.66
2023-04-18T12:26:01.421Z,161937.41
2023-04-18T12:29:05.608Z,161929.53
2023-04-18T12:32:09.728Z,161922.97
2023-04-18T12:35:14.471Z,161921.72
2023-04-18T12:38:23.516Z,161885.03
2023-04-18T12:41:27.508Z,161849.66
2023-04-18T12:44:31.472Z,161807.75
2023-04-18T12:47:35.748Z,161798.66
2023-04-18T12:50:40.745Z,161798.66
2023-04-18T12:53:44.737Z,161778.97
2023-04-18T12:56:49.197Z,161746.19
2023-04-18T12:59:53.368Z,161727.91
2023-04-18T13:02:57.753Z,161729.16
2023-04-18T13:06:02.202Z,161748.84
2023-04-18T13:09:06.661Z,161730.50
2023-04-18T13:12:11.572Z,161708.22
2023-04-18T13:15:16.238Z,161710.88
2023-04-18T13:18:20.767Z,161697.78
2023-04-18T13:21:25.918Z,161695.19
2023-04-18T13:24:29.952Z,161682.09
2023-04-18T13:27:34.479Z,161669.03
2023-04-18T13:30:38.641Z,161661.16
2023-04-18T13:33:42.621Z,161652.00
2023-04-18T13:36:46.792Z,161634.94
2023-04-18T13:39:51.570Z,161627.13
2023-04-18T13:42:55.796Z,161632.38
2023-04-18T13:46:00.372Z,161629.72
2023-04-18T13:49:04.454Z,161638.88
2023-04-18T13:52:08.769Z,161645.41
2023-04-18T13:55:12.796Z,161665.09
2023-04-18T13:58:17.191Z,161642.81
2023-04-18T14:01:22.126Z,161619.25
2023-04-18T14:04:27.037Z,161616.59
2023-04-18T14:07:31.324Z,161621.84
2023-04-18T14:10:35.670Z,161611.44
2023-04-18T14:13:39.615Z,161620.53
2023-04-18T14:16:43.574Z,161603.56
2023-04-18T14:19:48.772Z,161572.16
2023-04-18T14:22:53.352Z,161576.03
2023-04-18T14:25:57.548Z,161556.47
2023-04-18T14:29:02.983Z,161576.03
2023-04-18T14:32:07.714Z,161590.47
2023-04-18T14:35:11.525Z,161559.03
2023-04-18T14:38:16.141Z,161551.19
2023-04-18T14:41:20.673Z,161522.38
2023-04-18T14:44:27.290Z,161511.97
2023-04-18T14:47:34.774Z,161498.84
2023-04-18T14:50:39.310Z,161492.31
2023-04-18T14:53:44.808Z,161485.75
2023-04-18T14:56:48.694Z,161475.34
2023-04-18T14:59:54.527Z,161476.63
2023-04-18T15:02:58.631Z,161439.94
2023-04-18T15:06:02.709Z,161441.28
2023-04-18T15:09:06.989Z,161433.47
2023-04-18T15:12:10.918Z,161428.22
2023-04-18T15:15:14.839Z,161424.28
2023-04-18T15:18:19.114Z,161454.41
2023-04-18T15:21:23.212Z,161455.69
2023-04-18T15:24:27.589Z,161487.09
2023-04-18T15:27:31.770Z,161472.69
2023-04-18T15:30:36.285Z,161464.81
2023-04-18T15:33:40.368Z,161462.22
2023-04-18T15:36:46.656Z,161426.88
2023-04-18T15:39:51.185Z,161430.81
2023-04-18T15:42:56.066Z,161417.69
2023-04-18T15:46:00.265Z,161420.34
2023-04-18T15:49:04.663Z,161425.53
2023-04-18T15:52:08.785Z,161422.94
2023-04-18T15:55:13.473Z,161439.94
2023-04-18T15:58:17.689Z,161443.88
2023-04-18T16:01:22.799Z,161454.41
2023-04-18T16:04:27.073Z,161434.75
2023-04-18T16:07:31.321Z,161430.81
2023-04-18T16:10:36.840Z,161411.19
2023-04-18T16:13:41.215Z,161403.34
2023-04-18T16:16:46.017Z,161430.81
2023-04-18T16:19:50.119Z,161396.78
2023-04-18T16:22:54.293Z,161399.41
2023-04-18T16:25:58.464Z,161400.69
2023-04-18T16:29:03.136Z,161396.78
2023-04-18T16:32:08.359Z,161402.00
2023-04-18T16:35:12.207Z,161404.66
2023-04-18T16:38:16.474Z,161407.28
2023-04-18T16:41:20.845Z,161405.94
2023-04-18T16:44:25.316Z,161408.59
2023-04-18T16:47:30.288Z,161391.59
2023-04-18T16:50:34.306Z,161387.66
2023-04-18T16:53:38.180Z,161400.69
2023-04-18T16:56:44.538Z,161402.00
2023-04-18T16:59:48.872Z,161413.81
2023-04-18T17:02:55.352Z,161399.41
2023-04-18T17:06:00.812Z,161391.59
2023-04-18T17:09:06.415Z,161409.88
2023-04-18T17:12:10.676Z,161407.28
2023-04-18T17:15:19.077Z,161416.47
2023-04-18T17:18:23.214Z,161404.66
2023-04-18T17:21:27.449Z,161420.34
2023-04-18T17:24:33.901Z,161417.69
2023-04-18T17:27:40.670Z,161417.69
2023-04-18T17:30:45.051Z,161416.47
2023-04-18T17:33:51.987Z,161416.47
2023-04-18T17:36:56.089Z,161413.81
2023-04-18T17:40:01.324Z,161425.53
2023-04-18T17:43:05.305Z,161432.13
2023-04-18T17:46:09.229Z,161429.53
2023-04-18T17:49:13.690Z,161436.06
2023-04-18T17:52:18.022Z,161445.22
2023-04-18T17:55:22.135Z,161436.06
2023-04-18T17:58:26.776Z,161436.06
2023-04-18T18:01:31.650Z,161436.06
2023-04-18T18:04:35.940Z,161428.22
2023-04-18T18:07:43.055Z,161422.94
2023-04-18T18:10:48.248Z,161429.53
2023-04-18T18:13:54.523Z,161426.88
2023-04-18T18:16:58.305Z,161425.53
2023-04-18T18:20:02.440Z,161429.53
2023-04-18T18:23:07.344Z,161432.13
2023-04-18T18:26:11.962Z,161430.81
2023-04-18T18:29:16.052Z,161447.81
2023-04-18T18:32:20.468Z,161434.75
2023-04-18T18:35:24.560Z,161441.28
2023-04-18T18:38:28.897Z,161436.06
2023-04-18T18:41:33.355Z,161442.56
2023-04-18T18:44:37.418Z,161430.81
2023-04-18T18:47:41.382Z,161436.06
2023-04-18T18:50:45.456Z,161443.88
2023-04-18T18:53:50.004Z,161437.34
2023-04-18T18:56:53.875Z,161442.56
2023-04-18T18:59:57.620Z,161459.56
2023-04-18T19:03:01.834Z,161454.41
2023-04-18T19:06:07.297Z,161462.22
2023-04-18T19:09:12.176Z,161453.06
2023-04-18T19:12:16.341Z,161451.75
2023-04-18T19:15:20.720Z,161450.41
2023-04-18T19:18:24.976Z,161457.00
2023-04-18T19:21:29.898Z,161464.81
2023-04-18T19:24:34.978Z,161464.81
2023-04-18T19:27:39.136Z,161475.34
2023-04-18T19:30:43.395Z,161467.44
2023-04-18T19:33:47.568Z,161477.91
2023-04-18T19:36:51.448Z,161475.34
2023-04-18T19:39:55.652Z,161472.69
2023-04-18T19:42:59.673Z,161464.81
2023-04-18T19:46:03.893Z,161467.44
2023-04-18T19:49:07.923Z,161470.09
2023-04-18T19:52:12.123Z,161467.44
2023-04-18T19:55:16.241Z,161466.16
2023-04-18T19:58:38.780Z,161466.16
2023-04-18T20:01:42.764Z,161464.81
2023-04-18T20:04:46.672Z,161464.81
2023-04-18T20:07:51.236Z,161464.81
2023-04-18T20:10:56.165Z,161470.09
2023-04-18T20:14:00.618Z,161462.22
2023-04-18T20:17:04.345Z,161467.44
2023-04-18T20:20:09.427Z,161466.16
2023-04-18T20:23:14.379Z,161467.44
2023-04-18T20:26:19.348Z,161467.44
2023-04-18T20:29:23.863Z,161462.22
2023-04-18T20:32:28.056Z,161467.44
2023-04-18T20:35:32.072Z,161474.00
2023-04-18T20:38:36.915Z,161459.56
2023-04-18T20:41:46.693Z,161451.75
2023-04-18T20:44:51.286Z,161454.41
2023-04-18T20:47:56.852Z,161458.28
2023-04-18T20:51:01.159Z,161447.81
2023-04-18T20:54:05.627Z,161445.22
2023-04-18T20:57:09.475Z,161449.16
2023-04-18T21:00:14.240Z,161455.69
2023-04-18T21:03:18.823Z,161462.22
2023-04-18T21:06:23.192Z,161463.50
2023-04-18T21:09:27.481Z,161457.00
2023-04-18T21:12:31.766Z,161463.50
2023-04-18T21:15:36.172Z,161480.50
2023-04-18T21:18:40.054Z,161467.44
2023-04-18T21:21:44.241Z,161466.16
2023-04-18T21:24:48.449Z,161466.16
2023-04-18T21:27:52.669Z,161449.16
2023-04-18T21:30:57.040Z,161446.50
2023-04-18T21:34:04.196Z,161451.75
2023-04-18T21:37:08.501Z,161453.06
2023-04-18T21:40:12.694Z,161455.69
2023-04-18T21:43:16.790Z,161475.34
2023-04-18T21:46:21.117Z,161464.81
2023-04-18T21:49:25.572Z,161466.16
2023-04-18T21:52:29.897Z,161447.81
2023-04-18T21:55:34.273Z,161451.75
2023-04-18T21:58:38.455Z,161459.56
2023-04-18T22:01:42.940Z,161446.50
2023-04-18T22:04:48.090Z,161437.34
2023-04-18T22:07:58.034Z,161415.13
2023-04-18T22:11:04.736Z,161416.47
2023-04-18T22:14:09.956Z,161432.13
2023-04-18T22:17:14.327Z,161441.28
2023-04-18T22:20:18.562Z,161416.47
2023-04-18T22:23:22.588Z,161400.69
2023-04-18T22:26:26.668Z,161386.34
2023-04-18T22:29:30.842Z,161387.66
2023-04-18T22:32:35.588Z,161381.06
2023-04-18T22:35:39.636Z,161396.78
2023-04-18T22:38:43.738Z,161369.31
2023-04-18T22:41:47.923Z,161358.84
2023-04-18T22:44:52.291Z,161378.47
2023-04-18T22:47:56.468Z,161360.13
2023-04-18T22:51:01.884Z,161347.06
2023-04-18T22:54:06.158Z,161357.53
2023-04-18T22:57:10.872Z,161336.59
2023-04-18T23:00:15.374Z,161327.47
2023-04-18T23:03:19.849Z,161311.78
2023-04-18T23:06:23.869Z,161332.72
2023-04-18T23:09:31.267Z,161293.41
2023-04-18T23:12:35.084Z,161300.00
2023-04-18T23:15:39.214Z,161307.84
2023-04-18T23:18:43.421Z,161281.66
2023-04-18T23:21:49.580Z,161311.78
2023-04-18T23:24:55.064Z,161272.47
2023-04-18T23:27:59.142Z,161276.41
2023-04-18T23:31:03.273Z,161289.53
2023-04-18T23:34:07.465Z,161273.81
2023-04-18T23:37:11.947Z,161262.06
2023-04-18T23:40:16.228Z,161254.19
2023-04-18T23:43:21.009Z,161238.53
2023-04-18T23:46:25.835Z,161246.38
2023-04-18T23:49:30.660Z,161233.28
2023-04-18T23:52:34.958Z,161218.88
2023-04-18T23:55:39.378Z,161207.09
2023-04-18T23:58:43.655Z,161203.22
